Ana Sayfa
METAR-TAF:

METAR-TAF

Havaalanları :

Sanford-Lee County Regional Airport

Sanford, Kuzey Carolina, Amerika Birleşik Devletleri

Enlem: 35-34-57N, Boylam: 079-06-05W, yükseklik: 75 m

Güncel hava durumu gözlemi

Rapor saat 20:15 UTC de 11 dakika önce yapıldı.
Rüzgar güney/güneybatıdan 14 kt ve 23 kt'a kadar ani rüzgarlar
Sıcaklık 35°C
Nem 37%
Basınç 1012 hPa
Görüş mesafesi: 16.1 km
7000 ft yükseklikte parçalı bulutlu

METAR: KTTA 222015Z AUTO 20014G23KT 10SM SCT070 35/18 A2988 RMK AO2 T03530181

Saat: 16:26 (20:26 UTC)


TAF: eksik

4.000'den fazla havaalanı için hava durumu gözlemleri ve tahminleri (METAR ve TAF raporları).

Kullanılabilir istasyonlar harita üzerinde sarı ve kırmızı noktalarla gösterilir.

İstasyonun adını görmek için fareyi noktanın üzerinde gezdirin.

Sonrasında hava gözlem ve tahminlerini görmek için tıklayın.

Haritayı değiştirmek için: yaklaştırmak için siyah artı işaretli yeşil düğmeye ve uzaklaştırmak için de eksi işaretli düğmeye hızla tıklayın; bitişik haritalar için yeşil okları kullanın.


METAR-TAF: